sensor_id;sensor_type;location;lat;lon;timestamp;P1;durP1;ratioP1;P2;durP2;ratioP2
17449;SDS011;8842;51.244;7.102;2022-12-07T00:04:26;11.07;;;10.47;;
17449;SDS011;8842;51.244;7.102;2022-12-07T00:14:41;11.10;;;10.50;;
17449;SDS011;8842;51.244;7.102;2022-12-07T00:19:45;11.20;;;10.60;;
17449;SDS011;8842;51.244;7.102;2022-12-07T00:24:59;11.47;;;10.87;;
17449;SDS011;8842;51.244;7.102;2022-12-07T00:30:06;11.97;;;11.37;;
17449;SDS011;8842;51.244;7.102;2022-12-07T00:35:20;11.90;;;11.30;;
17449;SDS011;8842;51.244;7.102;2022-12-07T00:40:24;11.80;;;11.20;;
17449;SDS011;8842;51.244;7.102;2022-12-07T00:45:28;11.80;;;11.20;;
17449;SDS011;8842;51.244;7.102;2022-12-07T00:50:43;11.87;;;11.27;;
17449;SDS011;8842;51.244;7.102;2022-12-07T01:01:01;11.40;;;10.80;;
17449;SDS011;8842;51.244;7.102;2022-12-07T01:06:15;11.70;;;11.10;;
17449;SDS011;8842;51.244;7.102;2022-12-07T01:16:35;11.30;;;10.70;;
17449;SDS011;8842;51.244;7.102;2022-12-07T01:21:41;11.80;;;11.20;;
17449;SDS011;8842;51.244;7.102;2022-12-07T01:31:58;11.30;;;10.70;;
17449;SDS011;8842;51.244;7.102;2022-12-07T01:37:03;11.20;;;10.60;;
17449;SDS011;8842;51.244;7.102;2022-12-07T01:42:21;11.60;;;11.00;;
17449;SDS011;8842;51.244;7.102;2022-12-07T01:52:38;11.47;;;10.87;;
17449;SDS011;8842;51.244;7.102;2022-12-07T01:57:53;11.53;;;10.93;;
17449;SDS011;8842;51.244;7.102;2022-12-07T02:03:00;11.30;;;10.70;;
17449;SDS011;8842;51.244;7.102;2022-12-07T02:08:21;11.07;;;10.47;;
17449;SDS011;8842;51.244;7.102;2022-12-07T02:13:27;11.70;;;11.10;;
17449;SDS011;8842;51.244;7.102;2022-12-07T02:18:51;11.40;;;10.80;;
17449;SDS011;8842;51.244;7.102;2022-12-07T02:29:23;12.00;;;11.40;;
17449;SDS011;8842;51.244;7.102;2022-12-07T02:34:34;12.10;;;11.50;;
17449;SDS011;8842;51.244;7.102;2022-12-07T02:39:50;11.87;;;11.27;;
17449;SDS011;8842;51.244;7.102;2022-12-07T02:44:56;11.30;;;10.70;;
17449;SDS011;8842;51.244;7.102;2022-12-07T02:50:17;11.20;;;10.60;;
17449;SDS011;8842;51.244;7.102;2022-12-07T02:55:33;11.70;;;11.10;;
17449;SDS011;8842;51.244;7.102;2022-12-07T03:05:58;11.40;;;10.80;;
17449;SDS011;8842;51.244;7.102;2022-12-07T03:16:26;11.03;;;10.43;;
17449;SDS011;8842;51.244;7.102;2022-12-07T03:21:34;11.47;;;10.87;;
17449;SDS011;8842;51.244;7.102;2022-12-07T03:26:54;11.40;;;10.80;;
17449;SDS011;8842;51.244;7.102;2022-12-07T03:37:16;12.10;;;11.50;;
17449;SDS011;8842;51.244;7.102;2022-12-07T03:42:36;11.87;;;11.27;;
17449;SDS011;8842;51.244;7.102;2022-12-07T03:47:43;11.73;;;11.13;;
17449;SDS011;8842;51.244;7.102;2022-12-07T03:53:05;11.50;;;10.90;;
17449;SDS011;8842;51.244;7.102;2022-12-07T03:58:14;11.30;;;10.70;;
17449;SDS011;8842;51.244;7.102;2022-12-07T04:03:29;11.60;;;11.00;;
17449;SDS011;8842;51.244;7.102;2022-12-07T04:08:33;11.73;;;11.13;;
17449;SDS011;8842;51.244;7.102;2022-12-07T04:13:37;11.60;;;11.00;;
17449;SDS011;8842;51.244;7.102;2022-12-07T04:18:51;11.80;;;11.20;;
17449;SDS011;8842;51.244;7.102;2022-12-07T04:29:09;11.90;;;11.30;;
17449;SDS011;8842;51.244;7.102;2022-12-07T04:39:33;11.10;;;10.50;;
17449;SDS011;8842;51.244;7.102;2022-12-07T04:44:37;11.10;;;10.50;;
17449;SDS011;8842;51.244;7.102;2022-12-07T04:49:51;11.73;;;11.13;;
17449;SDS011;8842;51.244;7.102;2022-12-07T04:54:55;11.47;;;10.87;;
17449;SDS011;8842;51.244;7.102;2022-12-07T05:00:10;11.70;;;11.10;;
17449;SDS011;8842;51.244;7.102;2022-12-07T05:05:15;11.90;;;11.30;;
17449;SDS011;8842;51.244;7.102;2022-12-07T05:10:34;12.00;;;11.40;;
17449;SDS011;8842;51.244;7.102;2022-12-07T05:15:38;12.00;;;11.40;;
17449;SDS011;8842;51.244;7.102;2022-12-07T05:20:52;12.37;;;11.77;;
17449;SDS011;8842;51.244;7.102;2022-12-07T05:31:16;12.70;;;12.00;;
17449;SDS011;8842;51.244;7.102;2022-12-07T05:36:20;12.30;;;11.70;;
17449;SDS011;8842;51.244;7.102;2022-12-07T05:41:34;12.00;;;11.40;;
17449;SDS011;8842;51.244;7.102;2022-12-07T05:46:57;12.57;;;11.90;;
17449;SDS011;8842;51.244;7.102;2022-12-07T05:52:11;12.20;;;11.60;;
17449;SDS011;8842;51.244;7.102;2022-12-07T06:02:35;13.07;;;12.37;;
17449;SDS011;8842;51.244;7.102;2022-12-07T06:07:39;13.30;;;12.60;;
17449;SDS011;8842;51.244;7.102;2022-12-07T06:12:53;12.83;;;12.13;;
17449;SDS011;8842;51.244;7.102;2022-12-07T06:17:57;13.40;;;12.70;;
17449;SDS011;8842;51.244;7.102;2022-12-07T06:23:17;13.27;;;12.57;;
17449;SDS011;8842;51.244;7.102;2022-12-07T06:28:21;13.30;;;12.60;;
17449;SDS011;8842;51.244;7.102;2022-12-07T06:33:41;13.60;;;12.90;;
17449;SDS011;8842;51.244;7.102;2022-12-07T06:44:06;13.03;;;12.33;;
17449;SDS011;8842;51.244;7.102;2022-12-07T06:54:24;12.90;;;12.20;;
17449;SDS011;8842;51.244;7.102;2022-12-07T06:59:39;12.80;;;12.10;;
17449;SDS011;8842;51.244;7.102;2022-12-07T07:09:56;13.17;;;12.47;;
17449;SDS011;8842;51.244;7.102;2022-12-07T07:15:17;13.20;;;12.50;;
17449;SDS011;8842;51.244;7.102;2022-12-07T07:20:21;13.33;;;12.63;;
17449;SDS011;8842;51.244;7.102;2022-12-07T07:25:26;13.87;;;13.17;;
17449;SDS011;8842;51.244;7.102;2022-12-07T07:30:41;13.57;;;12.87;;
17449;SDS011;8842;51.244;7.102;2022-12-07T07:35:55;13.40;;;12.70;;
17449;SDS011;8842;51.244;7.102;2022-12-07T07:41:16;13.50;;;12.80;;
17449;SDS011;8842;51.244;7.102;2022-12-07T07:46:20;13.10;;;12.40;;
17449;SDS011;8842;51.244;7.102;2022-12-07T07:51:34;13.80;;;13.10;;
17449;SDS011;8842;51.244;7.102;2022-12-07T07:56:38;13.60;;;12.90;;
17449;SDS011;8842;51.244;7.102;2022-12-07T08:01:59;13.10;;;12.40;;
17449;SDS011;8842;51.244;7.102;2022-12-07T08:07:03;13.60;;;12.90;;
17449;SDS011;8842;51.244;7.102;2022-12-07T08:12:23;13.77;;;13.07;;
17449;SDS011;8842;51.244;7.102;2022-12-07T08:17:28;13.60;;;12.90;;
17449;SDS011;8842;51.244;7.102;2022-12-07T08:22:41;13.30;;;12.60;;
17449;SDS011;8842;51.244;7.102;2022-12-07T08:27:45;13.50;;;12.80;;
17449;SDS011;8842;51.244;7.102;2022-12-07T08:38:02;13.10;;;12.40;;
17449;SDS011;8842;51.244;7.102;2022-12-07T08:48:26;12.33;;;11.73;;
17449;SDS011;8842;51.244;7.102;2022-12-07T08:58:44;12.60;;;12.00;;
17449;SDS011;8842;51.244;7.102;2022-12-07T09:03:48;12.43;;;11.83;;
17449;SDS011;8842;51.244;7.102;2022-12-07T09:09:02;12.47;;;11.87;;
17449;SDS011;8842;51.244;7.102;2022-12-07T09:14:07;12.27;;;11.67;;
17449;SDS011;8842;51.244;7.102;2022-12-07T09:19:11;12.90;;;12.20;;
17449;SDS011;8842;51.244;7.102;2022-12-07T09:24:25;12.50;;;11.90;;
17449;SDS011;8842;51.244;7.102;2022-12-07T09:34:42;12.33;;;11.73;;
17449;SDS011;8842;51.244;7.102;2022-12-07T09:40:03;13.27;;;12.57;;
17449;SDS011;8842;51.244;7.102;2022-12-07T09:45:12;12.40;;;11.80;;
17449;SDS011;8842;51.244;7.102;2022-12-07T09:50:33;12.23;;;11.63;;
17449;SDS011;8842;51.244;7.102;2022-12-07T09:55:37;12.17;;;11.57;;
17449;SDS011;8842;51.244;7.102;2022-12-07T10:00:52;12.23;;;11.63;;
17449;SDS011;8842;51.244;7.102;2022-12-07T10:05:59;12.10;;;11.50;;
17449;SDS011;8842;51.244;7.102;2022-12-07T10:16:31;12.90;;;12.20;;
17449;SDS011;8842;51.244;7.102;2022-12-07T10:26:53;11.97;;;11.37;;
17449;SDS011;8842;51.244;7.102;2022-12-07T10:32:00;12.23;;;11.63;;
17449;SDS011;8842;51.244;7.102;2022-12-07T10:37:15;13.23;;;12.43;;
17449;SDS011;8842;51.244;7.102;2022-12-07T10:42:20;11.40;;;10.80;;
17449;SDS011;8842;51.244;7.102;2022-12-07T10:47:36;11.57;;;10.97;;
17449;SDS011;8842;51.244;7.102;2022-12-07T10:52:46;11.33;;;10.73;;
17449;SDS011;8842;51.244;7.102;2022-12-07T10:58:07;11.70;;;11.10;;
17449;SDS011;8842;51.244;7.102;2022-12-07T11:03:45;11.37;;;10.77;;
17449;SDS011;8842;51.244;7.102;2022-12-07T11:09:02;11.00;;;10.40;;
17449;SDS011;8842;51.244;7.102;2022-12-07T11:19:30;11.80;;;11.20;;
17449;SDS011;8842;51.244;7.102;2022-12-07T11:25:00;11.87;;;11.27;;
17449;SDS011;8842;51.244;7.102;2022-12-07T11:30:16;11.20;;;10.60;;
17449;SDS011;8842;51.244;7.102;2022-12-07T11:40:38;13.00;;;12.30;;
17449;SDS011;8842;51.244;7.102;2022-12-07T11:45:46;12.60;;;11.90;;
17449;SDS011;8842;51.244;7.102;2022-12-07T11:51:04;12.53;;;11.83;;
17449;SDS011;8842;51.244;7.102;2022-12-07T12:01:39;13.10;;;12.40;;
17449;SDS011;8842;51.244;7.102;2022-12-07T12:07:00;11.90;;;11.30;;
17449;SDS011;8842;51.244;7.102;2022-12-07T12:12:16;12.40;;;11.80;;
17449;SDS011;8842;51.244;7.102;2022-12-07T12:17:37;12.03;;;11.43;;
17449;SDS011;8842;51.244;7.102;2022-12-07T12:22:48;11.80;;;11.20;;
17449;SDS011;8842;51.244;7.102;2022-12-07T12:28:18;11.80;;;11.20;;
17449;SDS011;8842;51.244;7.102;2022-12-07T12:38:48;11.70;;;11.10;;
17449;SDS011;8842;51.244;7.102;2022-12-07T12:55:00;13.13;;;12.43;;
17449;SDS011;8842;51.244;7.102;2022-12-07T13:00:15;12.10;;;11.50;;
17449;SDS011;8842;51.244;7.102;2022-12-07T13:05:36;11.30;;;10.70;;
17449;SDS011;8842;51.244;7.102;2022-12-07T13:15:56;11.23;;;10.63;;
17449;SDS011;8842;51.244;7.102;2022-12-07T13:27:02;9.97;;;9.47;;
17449;SDS011;8842;51.244;7.102;2022-12-07T13:32:16;10.93;;;10.33;;
17449;SDS011;8842;51.244;7.102;2022-12-07T13:37:38;10.90;;;10.30;;
17449;SDS011;8842;51.244;7.102;2022-12-07T13:42:43;11.33;;;10.73;;
17449;SDS011;8842;51.244;7.102;2022-12-07T13:48:04;11.67;;;11.07;;
17449;SDS011;8842;51.244;7.102;2022-12-07T13:53:12;12.70;;;12.00;;
17449;SDS011;8842;51.244;7.102;2022-12-07T13:58:26;12.70;;;12.00;;
17449;SDS011;8842;51.244;7.102;2022-12-07T14:03:33;12.80;;;12.10;;
17449;SDS011;8842;51.244;7.102;2022-12-07T14:08:47;12.80;;;12.10;;
17449;SDS011;8842;51.244;7.102;2022-12-07T14:19:39;12.40;;;11.80;;
17449;SDS011;8842;51.244;7.102;2022-12-07T14:30:00;12.37;;;11.77;;
17449;SDS011;8842;51.244;7.102;2022-12-07T14:35:09;12.40;;;11.80;;
17449;SDS011;8842;51.244;7.102;2022-12-07T14:40:16;12.30;;;11.70;;
17449;SDS011;8842;51.244;7.102;2022-12-07T14:45:22;13.03;;;12.33;;
17449;SDS011;8842;51.244;7.102;2022-12-07T14:50:26;12.53;;;11.93;;
17449;SDS011;8842;51.244;7.102;2022-12-07T14:55:40;12.00;;;11.40;;
17449;SDS011;8842;51.244;7.102;2022-12-07T15:00:44;12.70;;;12.10;;
17449;SDS011;8842;51.244;7.102;2022-12-07T15:05:50;12.80;;;12.20;;
17449;SDS011;8842;51.244;7.102;2022-12-07T15:11:09;12.37;;;11.77;;
17449;SDS011;8842;51.244;7.102;2022-12-07T15:16:17;13.13;;;12.43;;
17449;SDS011;8842;51.244;7.102;2022-12-07T15:21:31;12.90;;;12.20;;
17449;SDS011;8842;51.244;7.102;2022-12-07T15:26:52;12.50;;;11.90;;
17449;SDS011;8842;51.244;7.102;2022-12-07T15:31:57;13.00;;;12.30;;
17449;SDS011;8842;51.244;7.102;2022-12-07T15:37:16;13.07;;;12.37;;
17449;SDS011;8842;51.244;7.102;2022-12-07T15:42:21;13.20;;;12.50;;
17449;SDS011;8842;51.244;7.102;2022-12-07T15:47:43;12.73;;;12.03;;
17449;SDS011;8842;51.244;7.102;2022-12-07T15:58:08;12.10;;;11.50;;
17449;SDS011;8842;51.244;7.102;2022-12-07T16:03:13;12.70;;;12.00;;
17449;SDS011;8842;51.244;7.102;2022-12-07T16:08:19;12.37;;;11.77;;
17449;SDS011;8842;51.244;7.102;2022-12-07T16:13:33;12.20;;;11.60;;
17449;SDS011;8842;51.244;7.102;2022-12-07T16:18:39;12.23;;;11.63;;
17449;SDS011;8842;51.244;7.102;2022-12-07T16:23:46;12.53;;;11.90;;
17449;SDS011;8842;51.244;7.102;2022-12-07T16:28:50;11.70;;;11.10;;
17449;SDS011;8842;51.244;7.102;2022-12-07T16:34:10;12.20;;;11.60;;
17449;SDS011;8842;51.244;7.102;2022-12-07T16:39:30;11.70;;;11.10;;
17449;SDS011;8842;51.244;7.102;2022-12-07T16:44:34;12.00;;;11.40;;
17449;SDS011;8842;51.244;7.102;2022-12-07T16:49:38;12.10;;;11.50;;
17449;SDS011;8842;51.244;7.102;2022-12-07T16:54:42;12.40;;;11.80;;
17449;SDS011;8842;51.244;7.102;2022-12-07T17:04:59;12.13;;;11.53;;
17449;SDS011;8842;51.244;7.102;2022-12-07T17:15:18;12.20;;;11.60;;
17449;SDS011;8842;51.244;7.102;2022-12-07T17:25:36;11.90;;;11.30;;
17449;SDS011;8842;51.244;7.102;2022-12-07T17:30:41;11.90;;;11.30;;
17449;SDS011;8842;51.244;7.102;2022-12-07T17:35:45;11.93;;;11.33;;
17449;SDS011;8842;51.244;7.102;2022-12-07T17:40:58;11.57;;;10.97;;
17449;SDS011;8842;51.244;7.102;2022-12-07T17:46:05;11.23;;;10.63;;
17449;SDS011;8842;51.244;7.102;2022-12-07T17:51:20;11.00;;;10.40;;
17449;SDS011;8842;51.244;7.102;2022-12-07T17:56:43;11.50;;;10.90;;
17449;SDS011;8842;51.244;7.102;2022-12-07T18:02:02;12.00;;;11.40;;
17449;SDS011;8842;51.244;7.102;2022-12-07T18:12:19;12.37;;;11.77;;
17449;SDS011;8842;51.244;7.102;2022-12-07T18:17:24;11.83;;;11.23;;
17449;SDS011;8842;51.244;7.102;2022-12-07T18:22:44;11.63;;;11.03;;
17449;SDS011;8842;51.244;7.102;2022-12-07T18:27:58;12.00;;;11.40;;
17449;SDS011;8842;51.244;7.102;2022-12-07T18:33:02;11.90;;;11.30;;
17449;SDS011;8842;51.244;7.102;2022-12-07T18:38:15;11.90;;;11.30;;
17449;SDS011;8842;51.244;7.102;2022-12-07T18:48:35;11.60;;;11.00;;
17449;SDS011;8842;51.244;7.102;2022-12-07T18:53:49;11.67;;;11.07;;
17449;SDS011;8842;51.244;7.102;2022-12-07T18:59:04;11.70;;;11.10;;
17449;SDS011;8842;51.244;7.102;2022-12-07T19:04:26;11.70;;;11.10;;
17449;SDS011;8842;51.244;7.102;2022-12-07T19:09:41;11.50;;;10.90;;
17449;SDS011;8842;51.244;7.102;2022-12-07T19:14:45;11.27;;;10.67;;
17449;SDS011;8842;51.244;7.102;2022-12-07T19:19:58;11.50;;;10.90;;
17449;SDS011;8842;51.244;7.102;2022-12-07T19:25:04;11.10;;;10.50;;
17449;SDS011;8842;51.244;7.102;2022-12-07T19:30:20;11.20;;;10.60;;
17449;SDS011;8842;51.244;7.102;2022-12-07T19:35:24;11.07;;;10.47;;
17449;SDS011;8842;51.244;7.102;2022-12-07T19:40:37;11.40;;;10.80;;
17449;SDS011;8842;51.244;7.102;2022-12-07T19:45:42;10.90;;;10.30;;
17449;SDS011;8842;51.244;7.102;2022-12-07T19:50:55;10.43;;;9.93;;
17449;SDS011;8842;51.244;7.102;2022-12-07T19:56:05;10.83;;;10.27;;
17449;SDS011;8842;51.244;7.102;2022-12-07T20:01:10;10.73;;;10.20;;
17449;SDS011;8842;51.244;7.102;2022-12-07T20:06:15;11.27;;;10.67;;
17449;SDS011;8842;51.244;7.102;2022-12-07T20:11:21;12.20;;;11.50;;
17449;SDS011;8842;51.244;7.102;2022-12-07T20:16:41;11.90;;;11.30;;
17449;SDS011;8842;51.244;7.102;2022-12-07T20:21:48;12.03;;;11.43;;
17449;SDS011;8842;51.244;7.102;2022-12-07T20:26:52;12.00;;;11.40;;
17449;SDS011;8842;51.244;7.102;2022-12-07T20:31:57;11.20;;;10.60;;
17449;SDS011;8842;51.244;7.102;2022-12-07T20:37:11;11.63;;;11.03;;
17449;SDS011;8842;51.244;7.102;2022-12-07T20:42:15;11.60;;;11.00;;
17449;SDS011;8842;51.244;7.102;2022-12-07T20:47:28;11.50;;;10.90;;
17449;SDS011;8842;51.244;7.102;2022-12-07T20:52:33;11.40;;;10.80;;
17449;SDS011;8842;51.244;7.102;2022-12-07T21:02:56;11.50;;;10.90;;
17449;SDS011;8842;51.244;7.102;2022-12-07T21:08:00;11.53;;;10.93;;
17449;SDS011;8842;51.244;7.102;2022-12-07T21:13:14;11.07;;;10.47;;
17449;SDS011;8842;51.244;7.102;2022-12-07T21:23:32;11.30;;;10.70;;
17449;SDS011;8842;51.244;7.102;2022-12-07T21:28:36;11.47;;;10.87;;
17449;SDS011;8842;51.244;7.102;2022-12-07T21:33:49;11.30;;;10.70;;
17449;SDS011;8842;51.244;7.102;2022-12-07T21:38:54;11.37;;;10.77;;
17449;SDS011;8842;51.244;7.102;2022-12-07T21:49:12;11.50;;;10.90;;
17449;SDS011;8842;51.244;7.102;2022-12-07T21:54:17;11.80;;;11.20;;
17449;SDS011;8842;51.244;7.102;2022-12-07T21:59:31;11.90;;;11.30;;
17449;SDS011;8842;51.244;7.102;2022-12-07T22:04:35;12.10;;;11.50;;
17449;SDS011;8842;51.244;7.102;2022-12-07T22:09:49;11.60;;;11.00;;
17449;SDS011;8842;51.244;7.102;2022-12-07T22:15:03;11.90;;;11.30;;
17449;SDS011;8842;51.244;7.102;2022-12-07T22:20:09;11.70;;;11.10;;
17449;SDS011;8842;51.244;7.102;2022-12-07T22:25:14;12.70;;;12.00;;
17449;SDS011;8842;51.244;7.102;2022-12-07T22:30:28;11.63;;;11.03;;
17449;SDS011;8842;51.244;7.102;2022-12-07T22:35:32;11.50;;;10.90;;
17449;SDS011;8842;51.244;7.102;2022-12-07T22:40:37;11.27;;;10.67;;
17449;SDS011;8842;51.244;7.102;2022-12-07T22:45:54;11.50;;;10.90;;
17449;SDS011;8842;51.244;7.102;2022-12-07T22:51:16;11.87;;;11.27;;
17449;SDS011;8842;51.244;7.102;2022-12-07T23:01:45;11.73;;;11.13;;
17449;SDS011;8842;51.244;7.102;2022-12-07T23:12:03;11.10;;;10.50;;
17449;SDS011;8842;51.244;7.102;2022-12-07T23:22:45;11.93;;;11.30;;
17449;SDS011;8842;51.244;7.102;2022-12-07T23:27:58;11.10;;;10.50;;
17449;SDS011;8842;51.244;7.102;2022-12-07T23:38:16;11.70;;;11.10;;
17449;SDS011;8842;51.244;7.102;2022-12-07T23:43:20;11.30;;;10.70;;
17449;SDS011;8842;51.244;7.102;2022-12-07T23:48:34;11.83;;;11.23;;
17449;SDS011;8842;51.244;7.102;2022-12-07T23:53:39;11.60;;;11.00;;
17449;SDS011;8842;51.244;7.102;2022-12-07T23:58:46;11.70;;;11.10;;
